Time;durP1;ratioP1;P1;durP2;ratioP2;P2;SDS_P1;SDS_P2;PMS_P1;PMS_P2;Temp;Humidity;BMP_temperature;BMP_pressure;BME280_temperature;BME280_humidity;BME280_pressure;Samples;Min_cycle;Max_cycle;Signal;HPM_P1;HPM_P2
2022/06/02 00:00:21;;;;;;;18.05;11.85;;;;;;;10.74;74.15;101953.56;5011310;28;20030;-71
2022/06/02 00:03:13;;;;;;;19.92;12.32;;;;;;;10.74;73.78;101944.88;5012273;28;20029;-72
2022/06/02 00:05:57;;;;;;;18.30;11.73;;;;;;;10.69;74.38;101946.38;5011242;28;20497;-72
2022/06/02 00:08:58;;;;;;;21.25;12.18;;;;;;;10.71;73.80;101947.34;5010587;28;20468;-72
2022/06/02 00:11:44;;;;;;;20.65;12.73;;;;;;;10.61;74.27;101946.94;4995841;28;20041;-72
2022/06/02 00:14:25;;;;;;;17.95;10.75;;;;;;;10.61;74.45;101952.16;5012136;28;20061;-72
2022/06/02 00:17:03;;;;;;;19.02;10.65;;;;;;;10.61;74.59;101948.69;5006857;28;20033;-72
2022/06/02 00:19:49;;;;;;;18.13;11.38;;;;;;;10.62;73.84;101953.06;5007740;28;20030;-71
2022/06/02 00:22:52;;;;;;;19.00;11.68;;;;;;;10.59;73.67;101953.84;4991992;28;20026;-72
2022/06/02 00:25:23;;;;;;;20.55;12.65;;;;;;;10.51;73.49;101956.94;4992821;28;20113;-72
2022/06/02 00:28:13;;;;;;;23.23;13.73;;;;;;;10.47;73.50;101955.03;4993360;28;20102;-70
2022/06/02 00:30:44;;;;;;;20.70;12.73;;;;;;;10.40;73.47;101960.00;4993425;28;20397;-70
2022/06/02 00:33:38;;;;;;;22.02;13.18;;;;;;;10.36;73.43;101960.69;4998233;28;20034;-70
2022/06/02 00:36:14;;;;;;;21.27;12.85;;;;;;;10.29;73.46;101957.72;4996287;28;20069;-70
2022/06/02 00:38:40;;;;;;;18.52;11.57;;;;;;;10.25;73.56;101956.69;5010654;28;20359;-70
2022/06/02 00:41:44;;;;;;;20.75;11.65;;;;;;;10.18;72.84;101955.56;5002974;28;20032;-70
2022/06/02 00:44:18;;;;;;;17.10;10.60;;;;;;;10.10;73.41;101962.13;4982150;28;20034;-70
2022/06/02 00:46:51;;;;;;;18.15;10.65;;;;;;;10.05;73.68;101956.75;4991943;28;20026;-70
2022/06/02 00:49:40;;;;;;;19.25;12.02;;;;;;;10.06;73.56;101961.09;4991105;28;20057;-70
2022/06/02 00:52:11;;;;;;;19.35;12.38;;;;;;;10.04;74.32;101961.88;4990573;28;20031;-70
2022/06/02 00:57:55;;;;;;;21.40;12.90;;;;;;;9.98;74.80;101964.19;5010518;28;20513;-71
2022/06/02 01:00:29;;;;;;;20.52;12.50;;;;;;;9.91;75.21;101963.94;4991627;28;20030;-71
2022/06/02 01:03:33;;;;;;;19.55;12.63;;;;;;;9.96;74.65;101969.34;4989517;28;20022;-71
2022/06/02 01:06:23;;;;;;;17.73;11.25;;;;;;;9.90;75.22;101964.75;4980019;28;20129;-71
2022/06/02 01:09:07;;;;;;;16.80;10.60;;;;;;;9.92;75.30;101963.13;4990854;28;20062;-71
2022/06/02 01:12:06;;;;;;;18.02;10.73;;;;;;;9.94;74.97;101964.91;4991745;28;20034;-71
2022/06/02 01:14:46;;;;;;;18.40;11.68;;;;;;;9.89;75.29;101960.38;4990401;28;20074;-71
2022/06/02 01:17:30;;;;;;;21.38;13.02;;;;;;;9.88;75.52;101963.78;4995096;28;20036;-71
2022/06/02 01:20:33;;;;;;;21.65;12.85;;;;;;;9.94;74.86;101962.31;4985343;28;20061;-71
2022/06/02 01:23:11;;;;;;;22.10;13.05;;;;;;;9.90;74.45;101961.25;4989300;28;20050;-71
2022/06/02 01:26:44;;;;;;;21.27;12.38;;;;;;;9.92;73.84;101957.91;4991200;28;20022;-71
2022/06/02 01:29:34;;;;;;;26.05;13.65;;;;;;;9.83;73.75;101960.09;4949953;28;20415;-71
2022/06/02 01:32:07;;;;;;;23.77;13.60;;;;;;;9.74;74.01;101954.47;4987671;28;20133;-71
2022/06/02 01:35:04;;;;;;;20.48;12.73;;;;;;;9.68;73.65;101968.09;4990318;28;20035;-71
2022/06/02 01:38:11;;;;;;;23.83;13.93;;;;;;;9.62;73.79;101962.63;4995723;28;20033;-71
2022/06/02 01:40:45;;;;;;;23.90;13.30;;;;;;;9.56;74.03;101962.38;4989853;28;20030;-71
2022/06/02 01:43:14;;;;;;;23.73;13.38;;;;;;;9.50;74.42;101965.56;4990442;28;20033;-71
2022/06/02 01:45:49;;;;;;;25.98;14.35;;;;;;;9.47;74.53;101959.31;4991107;28;20035;-71
2022/06/02 01:48:29;;;;;;;24.48;15.00;;;;;;;9.48;74.98;101962.00;4989373;28;20553;-71
2022/06/02 01:51:22;;;;;;;22.40;13.70;;;;;;;9.47;74.38;101968.03;4990203;28;20096;-71
2022/06/02 01:54:16;;;;;;;23.08;13.77;;;;;;;9.45;75.01;101959.25;4978377;28;20018;-71
2022/06/02 01:57:07;;;;;;;22.45;13.77;;;;;;;9.44;75.61;101957.47;4988195;28;20448;-71
2022/06/02 01:59:44;;;;;;;23.75;13.65;;;;;;;9.44;75.48;101962.66;5002977;28;20025;-71
2022/06/02 02:02:42;;;;;;;22.92;13.93;;;;;;;9.41;75.35;101954.72;5010534;28;20049;-71
2022/06/02 02:05:32;;;;;;;25.73;14.85;;;;;;;9.36;75.08;101957.13;4988184;28;20031;-71
2022/06/02 02:08:19;;;;;;;27.60;15.77;;;;;;;9.31;75.11;101965.53;4990031;28;20030;-71
2022/06/02 02:11:03;;;;;;;28.38;15.98;;;;;;;9.32;75.18;101964.72;5010541;28;20038;-71
2022/06/02 02:13:58;;;;;;;30.48;16.35;;;;;;;9.29;76.16;101961.97;4991331;28;20018;-71
2022/06/02 02:16:28;;;;;;;28.77;16.00;;;;;;;9.29;76.56;101967.16;4992476;28;20115;-71
2022/06/02 02:19:21;;;;;;;27.92;16.63;;;;;;;9.33;76.11;101974.31;4992711;28;20038;-71
2022/06/02 02:22:15;;;;;;;26.73;16.55;;;;;;;9.35;75.93;101968.31;4982997;28;20038;-71
2022/06/02 02:25:02;;;;;;;30.90;16.33;;;;;;;9.41;75.93;101972.94;4996125;28;20034;-71
2022/06/02 02:28:03;;;;;;;29.77;15.85;;;;;;;9.43;76.13;101973.91;4990161;28;20113;-71
2022/06/02 02:30:43;;;;;;;27.90;16.80;;;;;;;9.45;76.21;101980.06;4990806;28;20101;-71
2022/06/02 02:33:24;;;;;;;27.85;16.30;;;;;;;9.43;76.24;101976.50;4983409;28;20050;-71
2022/06/02 02:36:00;;;;;;;29.27;16.92;;;;;;;9.38;76.21;101972.78;4988598;28;20097;-71
2022/06/02 02:38:52;;;;;;;30.75;17.33;;;;;;;9.34;75.80;101976.06;4987800;28;20481;-71
2022/06/02 02:41:52;;;;;;;28.40;16.42;;;;;;;9.32;75.11;101976.00;4991004;28;20037;-71
2022/06/02 02:44:40;;;;;;;26.50;15.77;;;;;;;9.25;74.86;101986.03;4986941;28;20038;-71
2022/06/02 02:47:42;;;;;;;29.33;14.40;;;;;;;9.14;74.05;101983.81;4990394;28;20042;-71
2022/06/02 02:50:19;;;;;;;22.65;12.85;;;;;;;9.01;74.18;101984.94;4970506;28;20035;-71
2022/06/02 02:52:57;;;;;;;21.88;13.50;;;;;;;8.90;74.50;101991.31;4987100;28;20494;-71
2022/06/02 02:55:36;;;;;;;23.08;13.70;;;;;;;8.83;75.15;101987.53;4990905;28;20497;-71
2022/06/02 02:58:27;;;;;;;29.45;15.27;;;;;;;8.83;75.26;101992.72;4995347;28;20719;-71
2022/06/02 03:01:17;;;;;;;29.25;15.27;;;;;;;8.85;76.44;101995.44;5004785;28;20120;-71
2022/06/02 03:04:02;;;;;;;26.00;14.73;;;;;;;8.79;76.08;101993.41;4994108;28;20038;-71
2022/06/02 03:06:35;;;;;;;25.38;14.95;;;;;;;8.76;76.06;101992.34;5000243;28;20418;-71
2022/06/02 03:09:05;;;;;;;25.88;15.18;;;;;;;8.69;75.89;101999.84;5001785;28;20032;-71
2022/06/02 03:11:53;;;;;;;24.85;13.98;;;;;;;8.70;75.93;102000.72;4994673;28;20030;-71
2022/06/02 03:14:39;;;;;;;25.17;14.85;;;;;;;8.70;75.49;101995.53;4991665;28;20078;-71
2022/06/02 03:17:15;;;;;;;27.63;15.13;;;;;;;8.63;75.71;102002.16;4989411;28;20060;-71
2022/06/02 03:20:01;;;;;;;27.88;15.45;;;;;;;8.64;75.77;102005.63;4996516;28;20025;-71
2022/06/02 03:22:45;;;;;;;26.35;15.10;;;;;;;8.63;75.81;102011.63;4990333;28;20525;-71
2022/06/02 03:25:29;;;;;;;22.42;14.02;;;;;;;8.63;75.28;102011.63;4987488;28;20018;-71
2022/06/02 03:28:10;;;;;;;24.65;14.60;;;;;;;8.63;75.29;102015.13;4985022;28;20038;-71
2022/06/02 03:30:48;;;;;;;25.58;14.48;;;;;;;8.60;76.30;102019.28;4990479;28;20030;-71
2022/06/02 03:33:30;;;;;;;25.50;14.57;;;;;;;8.55;75.92;102019.03;4996128;28;20450;-71
2022/06/02 03:36:17;;;;;;;27.95;14.27;;;;;;;8.55;75.68;102020.75;4993718;28;20065;-71
2022/06/02 03:38:59;;;;;;;28.58;15.52;;;;;;;8.50;76.08;102029.22;5000651;28;20109;-71
2022/06/02 03:41:24;;;;;;;28.17;15.55;;;;;;;8.48;76.27;102028.22;5242604;23;20411;-71
2022/06/02 03:44:06;;;;;;;27.05;14.02;;;;;;;8.50;76.75;102034.41;4990060;28;20084;-71
2022/06/02 03:46:34;;;;;;;24.33;14.40;;;;;;;8.50;77.30;102030.91;4981544;28;20060;-71
2022/06/02 03:49:20;;;;;;;25.80;15.48;;;;;;;8.58;77.04;102039.97;4982216;28;20050;-71
2022/06/02 03:51:54;;;;;;;25.48;14.88;;;;;;;8.59;77.07;102038.25;4989771;28;20433;-71
2022/06/02 03:54:28;;;;;;;27.33;14.38;;;;;;;8.58;76.63;102041.69;4987600;28;20482;-71
2022/06/02 03:57:07;;;;;;;24.95;14.68;;;;;;;8.58;76.63;102041.69;4978551;28;20493;-71
2022/06/02 04:00:00;;;;;;;29.45;16.00;;;;;;;8.65;76.26;102051.59;4978038;28;20458;-71
2022/06/02 04:02:50;;;;;;;27.92;15.85;;;;;;;8.67;76.29;102047.34;4986592;28;20575;-71
2022/06/02 04:05:46;;;;;;;30.80;16.83;;;;;;;8.66;76.18;102048.16;4989438;28;20057;-71
2022/06/02 04:08:35;;;;;;;30.25;16.55;;;;;;;8.62;76.10;102051.44;4986628;28;20130;-71
2022/06/02 04:11:06;;;;;;;27.48;15.98;;;;;;;8.56;76.39;102057.22;4973233;28;20089;-71
2022/06/02 04:13:53;;;;;;;28.23;15.95;;;;;;;8.56;76.18;102053.69;4983427;28;20437;-71
2022/06/02 04:16:46;;;;;;;33.10;16.88;;;;;;;8.53;75.83;102044.06;4982913;28;20414;-71
2022/06/02 04:22:41;;;;;;;29.00;15.70;;;;;;;8.42;76.72;102056.44;4987472;28;20041;-71
2022/06/02 04:25:17;;;;;;;26.02;15.27;;;;;;;8.38;77.16;102054.50;4988563;28;20591;-71
2022/06/02 04:27:55;;;;;;;30.15;16.70;;;;;;;8.40;77.37;102054.56;4989940;28;20045;-71
2022/06/02 04:30:35;;;;;;;31.52;17.15;;;;;;;8.38;78.07;102062.28;4973819;28;20447;-71
2022/06/02 04:33:08;;;;;;;28.48;16.55;;;;;;;8.42;78.05;102060.75;4976733;28;20118;-71
2022/06/02 04:35:42;;;;;;;32.70;18.20;;;;;;;8.45;79.05;102068.75;4977828;28;20080;-71
2022/06/02 04:38:13;;;;;;;35.13;17.70;;;;;;;8.46;79.28;102063.63;4986334;28;20097;-71
2022/06/02 04:40:53;;;;;;;30.83;17.58;;;;;;;8.50;79.11;102065.56;4984687;28;20030;-71
2022/06/02 04:43:39;;;;;;;37.45;18.88;;;;;;;8.53;79.64;102065.72;4987537;28;20112;-71
2022/06/02 04:46:26;;;;;;;32.70;18.92;;;;;;;8.61;79.36;102066.13;4986544;28;20030;-71
2022/06/02 04:49:28;;;;;;;36.40;19.65;;;;;;;8.65;79.22;102072.38;4990003;28;20058;-71
2022/06/02 04:52:26;;;;;;;34.72;19.40;;;;;;;8.70;79.17;102079.59;4973663;28;20113;-72
2022/06/02 04:55:16;;;;;;;36.80;20.50;;;;;;;8.73;79.47;102067.56;4978826;28;20117;-71
2022/06/02 04:57:57;;;;;;;41.22;20.52;;;;;;;8.75;79.71;102082.44;4990474;28;20034;-72
2022/06/02 05:00:43;;;;;;;41.33;21.45;;;;;;;8.75;79.68;102074.63;4989806;28;20030;-72
2022/06/02 05:03:27;;;;;;;40.70;21.98;;;;;;;8.80;79.21;102080.06;4988691;28;20054;-72
2022/06/02 05:06:20;;;;;;;41.35;22.40;;;;;;;8.81;80.31;102077.53;4988774;28;20033;-72
2022/06/02 05:09:18;;;;;;;45.72;23.17;;;;;;;8.85;79.70;102084.66;4985511;28;20026;-72
2022/06/02 05:11:58;;;;;;;48.55;24.52;;;;;;;8.83;80.67;102075.88;4978537;28;20046;-72
2022/06/02 05:14:24;;;;;;;50.35;25.45;;;;;;;8.85;80.68;102083.78;4989287;28;20041;-72
2022/06/02 05:17:13;;;;;;;48.45;26.38;;;;;;;8.90;80.44;102084.00;4990122;28;20406;-72
2022/06/02 05:19:47;;;;;;;;;;;;;;;9.00;78.71;102081.94;4989190;28;20029;-72
2022/06/02 05:22:45;;;;;;;56.70;27.05;;;;;;;9.01;80.24;102082.84;4989576;28;20385;-72
2022/06/02 05:26:07;;;;;;;58.83;28.45;;;;;;;9.05;80.27;102087.38;4972811;28;20039;-72
2022/06/02 05:29:14;;;;;;;61.30;29.90;;;;;;;9.07;80.99;102083.16;4986815;28;20046;-72
2022/06/02 05:32:08;;;;;;;63.47;30.98;;;;;;;9.11;81.20;102084.19;4985889;28;20030;-72
2022/06/02 05:35:15;;;;;;;72.65;33.38;;;;;;;9.16;81.30;102087.91;4984797;28;20045;-72
2022/06/02 05:37:51;;;;;;;75.35;34.60;;;;;;;9.18;81.55;102081.97;4977178;28;20124;-72
2022/06/02 05:40:38;;;;;;;77.15;35.78;;;;;;;9.23;81.72;102085.69;4987128;28;20482;-72
2022/06/02 05:43:21;;;;;;;79.63;35.80;;;;;;;9.30;81.62;102089.47;4985228;28;20050;-72
2022/06/02 05:46:19;;;;;;;82.07;36.63;;;;;;;9.36;81.89;102088.91;4987163;28;20034;-72
2022/06/02 05:49:09;;;;;;;85.55;39.35;;;;;;;9.43;82.36;102090.97;4987235;28;20030;-72
2022/06/02 05:52:04;;;;;;;84.15;38.28;;;;;;;9.50;82.75;102087.84;4986053;28;20030;-72
2022/06/02 05:54:41;;;;;;;82.78;37.85;;;;;;;9.57;83.33;102089.00;4988221;28;20493;-72
2022/06/02 05:57:33;;;;;;;90.22;38.92;;;;;;;9.66;83.35;102084.28;4985642;28;20096;-72
2022/06/02 06:00:17;;;;;;;88.68;37.20;;;;;;;9.78;82.93;102089.16;4987865;28;20501;-72
2022/06/02 06:03:25;;;;;;;85.93;38.10;;;;;;;9.86;83.05;102095.63;4986160;28;20037;-72
2022/06/02 06:06:02;;;;;;;87.18;38.08;;;;;;;9.97;82.78;102101.31;4986997;28;20041;-72
2022/06/02 06:08:39;;;;;;;96.10;39.50;;;;;;;10.06;83.70;102101.72;4985153;28;20032;-72
2022/06/02 06:11:28;;;;;;;86.30;38.50;;;;;;;10.16;82.84;102104.75;4985429;28;20402;-72
2022/06/02 06:13:59;;;;;;;;;;;;;;;10.25;80.75;102106.09;4988187;28;20064;-72
2022/06/02 06:16:32;;;;;;;93.13;37.95;;;;;;;10.33;82.46;102110.75;4990161;28;19972;-72
2022/06/02 06:19:09;;;;;;;99.50;41.03;;;;;;;10.41;82.38;102114.59;4984902;28;20462;-72
2022/06/02 06:22:12;;;;;;;97.60;40.00;;;;;;;10.49;82.82;102115.84;4991387;28;20078;-72
2022/06/02 06:24:50;;;;;;;96.57;39.80;;;;;;;10.59;82.51;102125.84;4987546;28;20031;-72
2022/06/02 06:27:41;;;;;;;97.30;39.92;;;;;;;10.67;82.81;102123.56;4982794;28;20030;-72
2022/06/02 06:30:30;;;;;;;94.97;38.88;;;;;;;10.76;82.41;102125.69;4991849;28;20054;-72
2022/06/02 06:33:15;;;;;;;91.07;38.45;;;;;;;10.84;81.82;102129.53;4990694;28;20022;-72
2022/06/02 06:35:49;;;;;;;86.10;37.22;;;;;;;10.92;82.47;102129.84;4992151;28;20512;-72
2022/06/02 06:38:47;;;;;;;89.57;36.75;;;;;;;11.00;82.62;102138.91;4987951;28;20397;-72
2022/06/02 06:41:28;;;;;;;86.63;35.03;;;;;;;11.08;82.22;102134.00;4988407;28;20049;-72
2022/06/02 06:44:03;;;;;;;85.10;34.67;;;;;;;11.14;81.51;102136.88;4974442;28;20057;-72
2022/06/02 06:46:40;;;;;;;80.65;35.13;;;;;;;11.23;81.75;102136.38;4977208;28;20053;-73
2022/06/02 06:49:32;;;;;;;79.70;34.33;;;;;;;11.28;81.56;102140.97;4989831;28;20100;-72
2022/06/02 06:52:10;;;;;;;87.32;35.35;;;;;;;11.36;81.69;102146.50;4991983;28;20108;-72
2022/06/02 06:54:52;;;;;;;89.38;35.58;;;;;;;11.46;82.41;102153.00;4977470;28;20023;-72
2022/06/02 06:57:30;;;;;;;78.30;35.53;;;;;;;11.54;81.67;102146.34;4973777;28;20108;-73
2022/06/02 07:00:16;;;;;;;80.15;34.08;;;;;;;11.59;81.03;102152.66;4982569;28;20390;-72
2022/06/02 07:02:56;;;;;;;76.75;32.72;;;;;;;11.68;81.68;102153.88;4988631;28;20398;-72
2022/06/02 07:05:46;;;;;;;74.68;32.90;;;;;;;11.73;82.35;102145.38;4989461;28;20073;-72
2022/06/02 07:08:35;;;;;;;77.10;35.28;;;;;;;11.82;82.80;102144.84;4989177;28;20027;-72
2022/06/02 07:14:19;;;;;;;62.72;31.55;;;;;;;12.05;82.58;102160.56;4989989;28;20564;-73
2022/06/02 07:16:55;;;;;;;62.78;30.00;;;;;;;12.12;80.89;102160.88;4991937;28;20041;-73
2022/06/02 07:19:55;;;;;;;61.67;31.98;;;;;;;12.21;81.03;102168.16;4992696;28;20030;-72
2022/06/02 07:22:43;;;;;;;55.45;29.48;;;;;;;12.25;79.49;102163.94;4993525;28;20030;-73
2022/06/02 07:25:23;;;;;;;56.38;29.98;;;;;;;12.31;80.49;102169.38;4978228;28;20725;-72
2022/06/02 07:28:01;;;;;;;42.13;23.27;;;;;;;12.28;75.40;102167.56;4991793;28;20259;-72
2022/06/02 07:30:32;;;;;;;42.55;23.77;;;;;;;12.25;77.23;102169.16;4985617;28;20038;-72
2022/06/02 07:33:11;;;;;;;47.50;25.40;;;;;;;12.24;78.59;102170.91;4976950;28;20058;-72
2022/06/02 07:36:11;;;;;;;42.65;24.38;;;;;;;12.25;78.59;102177.91;4986492;28;20026;-72
2022/06/02 07:39:15;;;;;;;43.08;24.30;;;;;;;12.32;77.87;102179.00;4985922;28;20049;-73
2022/06/02 07:41:49;;;;;;;41.05;22.48;;;;;;;12.43;78.37;102187.28;4973467;28;20054;-73
2022/06/02 07:44:32;;;;;;;36.63;20.58;;;;;;;12.48;76.88;102177.88;4973257;28;20049;-72
2022/06/02 07:47:00;;;;;;;35.47;20.38;;;;;;;12.50;75.43;102181.44;4987789;28;20093;-71
2022/06/02 07:49:47;;;;;;;35.50;20.88;;;;;;;12.50;76.21;102176.22;4989830;28;20034;-72
2022/06/02 07:52:35;;;;;;;34.33;20.33;;;;;;;12.52;75.25;102179.75;4988142;28;20034;-71
2022/06/02 07:55:20;;;;;;;34.50;20.27;;;;;;;12.56;75.36;102176.44;4992628;28;20029;-72
2022/06/02 07:58:04;;;;;;;34.65;18.92;;;;;;;12.58;74.08;102173.88;4980587;28;20026;-72
2022/06/02 08:00:38;;;;;;;36.70;20.33;;;;;;;12.57;74.84;102170.38;4981620;28;20023;-72
2022/06/02 08:03:08;;;;;;;38.05;21.15;;;;;;;12.59;75.62;102173.94;4976229;28;20088;-71
2022/06/02 08:05:46;;;;;;;38.10;20.73;;;;;;;12.61;75.47;102176.59;4981742;28;20509;-72
2022/06/02 08:08:39;;;;;;;39.22;21.65;;;;;;;12.68;76.37;102176.00;4972943;28;20078;-72
2022/06/02 08:11:05;;;;;;;36.47;21.13;;;;;;;12.75;76.37;102170.16;4984383;28;20041;-71
2022/06/02 08:13:53;;;;;;;36.63;20.85;;;;;;;12.77;76.05;102167.59;4991230;28;20050;-71
2022/06/02 08:16:57;;;;;;;34.90;20.07;;;;;;;12.82;76.11;102169.53;4992258;28;20022;-71
2022/06/02 08:19:35;;;;;;;34.63;19.00;;;;;;;12.93;76.54;102174.25;4992423;28;20269;-71
2022/06/02 08:22:05;;;;;;;33.25;19.33;;;;;;;12.99;75.55;102174.47;4982963;28;20050;-71
2022/06/02 08:24:54;;;;;;;27.95;16.98;;;;;;;13.05;73.33;102170.34;4972950;28;20030;-71
2022/06/02 08:27:47;;;;;;;28.58;16.50;;;;;;;13.18;73.79;102162.94;4972829;28;20403;-72
2022/06/02 08:30:25;;;;;;;29.05;17.52;;;;;;;13.35;75.63;102167.03;4987280;28;20109;-72
2022/06/02 08:33:42;;;;;;;32.17;17.83;;;;;;;13.44;72.73;102170.78;4991982;28;20034;-71
2022/06/02 08:36:14;;;;;;;32.42;17.20;;;;;;;13.54;73.51;102175.47;4986521;28;20088;-71
2022/06/02 08:39:12;;;;;;;30.00;18.10;;;;;;;13.67;73.17;102182.00;4981295;28;20417;-73
2022/06/02 08:41:51;;;;;;;26.38;15.48;;;;;;;13.75;73.22;102180.53;4987358;28;20073;-72
2022/06/02 08:44:35;;;;;;;27.80;16.45;;;;;;;13.83;71.40;102176.44;4991686;28;20394;-72
2022/06/02 08:47:24;;;;;;;21.98;12.75;;;;;;;13.87;69.86;102183.53;4987673;28;20183;-72
2022/06/02 08:49:50;;;;;;;25.10;15.68;;;;;;;13.91;68.36;102185.41;4977929;28;20486;-72
2022/06/02 08:52:30;;;;;;;28.50;17.05;;;;;;;13.98;69.60;102181.25;4985866;28;20026;-71
2022/06/02 08:55:26;;;;;;;27.58;16.13;;;;;;;14.06;68.71;102186.72;4984978;28;20031;-72
2022/06/02 08:58:13;;;;;;;28.85;17.25;;;;;;;14.13;69.07;102187.81;4972500;28;20026;-72
2022/06/02 09:00:54;;;;;;;28.88;17.10;;;;;;;14.14;68.26;102187.84;4972599;28;20038;-71
2022/06/02 09:03:31;;;;;;;32.13;17.70;;;;;;;14.23;70.79;102185.50;4977004;28;20421;-71
2022/06/02 09:06:23;;;;;;;29.00;17.83;;;;;;;14.29;67.77;102183.94;4991614;28;20034;-71
2022/06/02 09:09:16;;;;;;;30.85;18.00;;;;;;;14.34;69.66;102171.81;4982573;28;20528;-72
2022/06/02 09:12:11;;;;;;;29.05;18.17;;;;;;;14.42;69.08;102180.81;4990864;28;20038;-72
2022/06/02 09:15:15;;;;;;;30.45;17.50;;;;;;;14.49;70.67;102179.28;4973269;28;20058;-72
2022/06/02 09:18:10;;;;;;;28.33;14.88;;;;;;;14.53;66.75;102175.91;4972093;28;20399;-71
2022/06/02 09:20:57;;;;;;;31.60;19.10;;;;;;;14.58;68.25;102184.78;4971491;28;20039;-72
2022/06/02 09:23:43;;;;;;;28.85;17.30;;;;;;;14.68;72.16;102178.09;4971859;28;20031;-71
2022/06/02 09:27:00;;;;;;;30.13;17.60;;;;;;;14.74;70.02;102179.16;4971959;28;20037;-72
2022/06/02 09:29:42;;;;;;;31.58;17.13;;;;;;;14.86;71.87;102181.22;4960632;28;20474;-72
2022/06/02 09:32:31;;;;;;;29.25;17.10;;;;;;;14.94;70.42;102170.94;4971725;28;20115;-71
2022/06/02 09:35:12;;;;;;;28.85;18.38;;;;;;;14.99;67.13;102169.34;4971904;28;20034;-72
2022/06/02 09:37:59;;;;;;;26.90;17.00;;;;;;;15.04;67.77;102172.94;4971689;28;20023;-72
2022/06/02 09:40:43;;;;;;;28.08;15.90;;;;;;;15.11;68.74;102177.50;4980971;28;20033;-73
2022/06/02 09:43:47;;;;;;;25.20;15.60;;;;;;;15.24;67.98;102175.22;4982301;28;20134;-73
2022/06/02 09:46:40;;;;;;;23.65;14.95;;;;;;;15.34;68.02;102171.97;4970385;28;20042;-72
2022/06/02 09:49:26;;;;;;;20.10;13.13;;;;;;;15.41;66.04;102163.41;4971577;28;20031;-72
2022/06/02 09:52:20;;;;;;;21.90;13.63;;;;;;;15.53;69.44;102168.06;4971550;28;20050;-71
2022/06/02 09:55:07;;;;;;;22.30;13.60;;;;;;;15.59;68.37;102169.97;4971190;28;20110;-71
2022/06/02 09:57:55;;;;;;;22.05;13.02;;;;;;;15.61;66.46;102170.88;4971491;28;20027;-71
2022/06/02 10:00:38;;;;;;;22.75;13.00;;;;;;;15.60;60.84;102174.38;4971444;28;20114;-73
2022/06/02 10:03:12;;;;;;;21.95;14.05;;;;;;;15.57;61.25;102169.00;4973264;28;20075;-72
2022/06/02 10:05:49;;;;;;;21.27;13.77;;;;;;;15.55;59.99;102171.59;4971560;28;20022;-72
2022/06/02 10:08:25;;;;;;;20.80;13.30;;;;;;;15.59;60.47;102172.59;4971388;28;20058;-72
2022/06/02 10:10:59;;;;;;;20.02;12.27;;;;;;;15.65;59.54;102172.72;4971504;28;20155;-72
2022/06/02 10:13:32;;;;;;;21.50;13.60;;;;;;;15.71;59.86;102164.97;4971376;28;20594;-72
2022/06/02 10:16:09;;;;;;;23.13;12.85;;;;;;;15.76;61.68;102168.63;4971315;28;20101;-71
2022/06/02 10:18:56;;;;;;;22.92;12.90;;;;;;;15.81;61.33;102174.91;4971270;28;20035;-71
2022/06/02 10:21:46;;;;;;;23.23;14.57;;;;;;;15.82;59.97;102162.66;4971290;28;20027;-72
2022/06/02 10:24:33;;;;;;;21.60;13.85;;;;;;;15.80;58.26;102165.25;4971052;28;20085;-72
2022/06/02 10:27:36;;;;;;;25.95;16.50;;;;;;;15.81;59.10;102156.53;4971092;28;20039;-71
2022/06/02 10:30:22;;;;;;;25.83;15.88;;;;;;;15.87;59.45;102158.38;4971228;28;20026;-72
2022/06/02 10:33:13;;;;;;;26.20;15.73;;;;;;;15.90;60.98;102162.81;4971320;28;20050;-71
2022/06/02 10:36:04;;;;;;;24.27;15.82;;;;;;;15.96;58.97;102161.22;4971231;28;20038;-73
2022/06/02 10:38:35;;;;;;;24.92;15.50;;;;;;;16.07;60.60;102157.94;4971179;28;20023;-71
2022/06/02 10:41:20;;;;;;;27.65;16.10;;;;;;;16.06;58.10;102158.78;4975652;28;20406;-71
2022/06/02 10:44:19;;;;;;;24.48;14.85;;;;;;;16.13;60.13;102156.34;4970996;28;20104;-70
2022/06/02 10:47:03;;;;;;;;;;;;;;;16.17;60.42;102155.53;4969560;28;20043;-72
2022/06/02 10:49:44;;;;;;;24.95;14.02;;;;;;;16.25;60.93;102147.81;4971066;28;19914;-73
2022/06/02 10:52:47;;;;;;;27.55;16.80;;;;;;;16.37;61.39;102154.22;4969649;28;20026;-73
2022/06/02 10:55:12;;;;;;;25.08;16.02;;;;;;;16.51;62.68;102147.44;4970956;28;20482;-72
2022/06/02 10:58:02;;;;;;;29.05;17.55;;;;;;;16.62;60.12;102147.69;4971113;28;20074;-72
2022/06/02 11:00:49;;;;;;;27.45;16.63;;;;;;;16.74;64.33;102150.53;4969654;28;20538;-71
2022/06/02 11:03:41;;;;;;;29.70;17.40;;;;;;;16.83;59.42;102145.47;4970935;28;20027;-72
2022/06/02 11:06:34;;;;;;;29.50;16.85;;;;;;;16.94;61.27;102144.81;4973309;28;20414;-73
2022/06/02 11:09:30;;;;;;;32.45;18.13;;;;;;;17.07;61.63;102136.25;4974474;28;20030;-71
2022/06/02 11:12:07;;;;;;;25.75;17.40;;;;;;;17.19;59.33;102139.13;4972883;28;20038;-71
2022/06/02 11:14:35;;;;;;;26.45;16.23;;;;;;;17.29;59.44;102142.78;4974345;28;20023;-71
2022/06/02 11:17:42;;;;;;;29.20;16.63;;;;;;;17.30;59.29;102141.03;4974353;28;20031;-71
2022/06/02 11:20:33;;;;;;;29.63;18.35;;;;;;;17.24;55.83;102138.31;4980070;28;20048;-75
2022/06/02 11:23:01;;;;;;;28.60;16.75;;;;;;;17.28;57.10;102142.75;4992120;28;20030;-73
2022/06/02 11:26:03;;;;;;;29.90;17.17;;;;;;;17.31;57.27;102134.91;4991763;28;20034;-72
2022/06/02 11:28:47;;;;;;;26.58;16.40;;;;;;;17.34;55.00;102140.22;4982013;28;20110;-71
2022/06/02 11:31:31;;;;;;;30.50;17.73;;;;;;;17.30;56.60;102135.75;4985677;28;20477;-72
2022/06/02 11:34:34;;;;;;;27.55;16.27;;;;;;;17.34;55.93;102135.84;4993425;28;20026;-72
2022/06/02 11:37:27;;;;;;;27.88;17.05;;;;;;;17.35;55.00;102131.44;4986033;28;20070;-72
2022/06/02 11:40:21;;;;;;;27.05;16.73;;;;;;;17.34;56.40;102127.94;4973725;28;20022;-72
2022/06/02 11:43:16;;;;;;;25.48;15.45;;;;;;;17.34;58.65;102133.19;4980381;28;20076;-72
2022/06/02 11:46:05;;;;;;;31.17;17.33;;;;;;;17.37;58.48;102132.38;4979751;28;20418;-73
2022/06/02 11:48:51;;;;;;;29.42;18.15;;;;;;;17.44;55.87;102112.25;4973511;28;20027;-72
2022/06/02 11:51:37;;;;;;;27.63;17.02;;;;;;;17.56;57.36;102113.34;4974747;28;20049;-71
2022/06/02 11:54:24;;;;;;;29.33;17.38;;;;;;;17.56;56.21;102109.81;4985369;28;20561;-72
2022/06/02 11:57:06;;;;;;;29.38;17.83;;;;;;;17.54;55.29;102103.66;4972364;28;20034;-72
2022/06/02 11:59:31;;;;;;;28.70;17.95;;;;;;;17.62;54.89;102103.75;4972190;28;20026;-72
2022/06/02 12:02:15;;;;;;;26.57;16.73;;;;;;;17.69;55.52;102098.59;4974032;28;20030;-72
2022/06/02 12:05:11;;;;;;;27.17;15.57;;;;;;;17.76;56.71;102102.22;4973486;28;20282;-73
2022/06/02 12:08:16;;;;;;;27.20;16.63;;;;;;;17.69;55.05;102093.31;4972411;28;20062;-72
2022/06/02 12:10:57;;;;;;;25.30;15.93;;;;;;;17.63;51.65;102097.63;4973239;28;20027;-72
2022/06/02 12:13:52;;;;;;;25.48;15.25;;;;;;;17.62;53.23;102093.22;4973117;28;20080;-72
2022/06/02 12:16:34;;;;;;;24.45;15.50;;;;;;;17.65;52.27;102080.94;4971460;28;20038;-73
2022/06/02 12:19:15;;;;;;;28.67;17.00;;;;;;;17.67;49.16;102086.25;4981684;28;20019;-73
2022/06/02 12:22:08;;;;;;;30.58;19.15;;;;;;;17.74;52.47;102074.91;4971885;28;20033;-74
2022/06/02 12:24:49;;;;;;;28.00;17.27;;;;;;;17.88;54.06;102073.34;4973322;28;20035;-72
2022/06/02 12:27:37;;;;;;;30.40;17.40;;;;;;;17.96;55.20;102067.31;4972922;28;20442;-72
2022/06/02 12:30:02;;;;;;;28.35;17.45;;;;;;;17.99;52.68;102059.47;4972897;28;20678;-73
2022/06/02 12:32:56;;;;;;;26.80;16.42;;;;;;;18.08;55.87;102068.38;4971374;28;20525;-73
2022/06/02 12:35:39;;;;;;;30.75;18.17;;;;;;;18.18;51.90;102064.09;4978181;28;20026;-73
2022/06/02 12:38:39;;;;;;;26.98;16.92;;;;;;;18.22;52.35;102062.41;4991532;28;20041;-72
2022/06/02 12:41:28;;;;;;;25.48;15.85;;;;;;;18.24;52.39;102065.91;4987838;28;20030;-72
2022/06/02 12:44:28;;;;;;;26.02;16.33;;;;;;;18.30;53.38;102062.47;4987359;28;20432;-73
2022/06/02 12:47:19;;;;;;;25.30;14.75;;;;;;;18.35;53.34;102055.47;4984954;28;20153;-73